sensor_id;sensor_type;location;lat;lon;timestamp;P1;durP1;ratioP1;P2;durP2;ratioP2
11998;SDS011;40817;51.520;9.954;2022-10-15T00:01:04;5.70;;;4.32;;
11998;SDS011;40817;51.520;9.954;2022-10-15T00:03:37;6.00;;;4.28;;
11998;SDS011;40817;51.520;9.954;2022-10-15T00:06:08;6.78;;;4.25;;
11998;SDS011;40817;51.520;9.954;2022-10-15T00:08:39;6.82;;;4.55;;
11998;SDS011;40817;51.520;9.954;2022-10-15T00:11:09;7.05;;;4.60;;
11998;SDS011;40817;51.520;9.954;2022-10-15T00:13:40;5.63;;;4.45;;
11998;SDS011;40817;51.520;9.954;2022-10-15T00:16:10;6.13;;;4.40;;
11998;SDS011;40817;51.520;9.954;2022-10-15T00:18:43;7.50;;;4.40;;
11998;SDS011;40817;51.520;9.954;2022-10-15T00:21:12;5.32;;;4.50;;
11998;SDS011;40817;51.520;9.954;2022-10-15T00:23:44;16.98;;;4.50;;
11998;SDS011;40817;51.520;9.954;2022-10-15T00:26:14;5.20;;;4.60;;
11998;SDS011;40817;51.520;9.954;2022-10-15T00:28:46;4.80;;;3.97;;
11998;SDS011;40817;51.520;9.954;2022-10-15T00:31:17;4.65;;;4.15;;
11998;SDS011;40817;51.520;9.954;2022-10-15T00:33:51;5.30;;;4.40;;
11998;SDS011;40817;51.520;9.954;2022-10-15T00:36:22;7.65;;;4.00;;
11998;SDS011;40817;51.520;9.954;2022-10-15T00:38:52;5.75;;;4.00;;
11998;SDS011;40817;51.520;9.954;2022-10-15T00:41:21;6.22;;;4.40;;
11998;SDS011;40817;51.520;9.954;2022-10-15T00:43:54;6.82;;;4.20;;
11998;SDS011;40817;51.520;9.954;2022-10-15T00:46:24;4.78;;;4.28;;
11998;SDS011;40817;51.520;9.954;2022-10-15T00:48:59;4.93;;;4.38;;
11998;SDS011;40817;51.520;9.954;2022-10-15T00:51:41;5.68;;;4.25;;
11998;SDS011;40817;51.520;9.954;2022-10-15T00:54:14;6.25;;;4.47;;
11998;SDS011;40817;51.520;9.954;2022-10-15T00:56:42;9.13;;;4.53;;
11998;SDS011;40817;51.520;9.954;2022-10-15T00:59:13;5.88;;;3.88;;
11998;SDS011;40817;51.520;9.954;2022-10-15T01:01:47;4.88;;;3.70;;
11998;SDS011;40817;51.520;9.954;2022-10-15T01:04:16;4.85;;;3.88;;
11998;SDS011;40817;51.520;9.954;2022-10-15T01:06:45;6.93;;;4.20;;
11998;SDS011;40817;51.520;9.954;2022-10-15T01:09:14;6.18;;;3.88;;
11998;SDS011;40817;51.520;9.954;2022-10-15T01:11:43;4.80;;;4.18;;
11998;SDS011;40817;51.520;9.954;2022-10-15T01:14:23;4.40;;;3.85;;
11998;SDS011;40817;51.520;9.954;2022-10-15T01:17:03;4.40;;;3.67;;
11998;SDS011;40817;51.520;9.954;2022-10-15T01:19:48;4.60;;;3.88;;
11998;SDS011;40817;51.520;9.954;2022-10-15T01:23:09;4.55;;;3.88;;
11998;SDS011;40817;51.520;9.954;2022-10-15T01:30:14;4.18;;;3.78;;
11998;SDS011;40817;51.520;9.954;2022-10-15T01:32:57;4.72;;;3.75;;
11998;SDS011;40817;51.520;9.954;2022-10-15T01:35:52;4.53;;;4.10;;
11998;SDS011;40817;51.520;9.954;2022-10-15T01:38:32;4.85;;;4.15;;
11998;SDS011;40817;51.520;9.954;2022-10-15T01:41:13;6.25;;;4.55;;
11998;SDS011;40817;51.520;9.954;2022-10-15T01:43:50;6.07;;;5.03;;
11998;SDS011;40817;51.520;9.954;2022-10-15T01:46:30;4.78;;;4.28;;
11998;SDS011;40817;51.520;9.954;2022-10-15T01:49:05;4.57;;;3.75;;
11998;SDS011;40817;51.520;9.954;2022-10-15T01:51:37;6.78;;;3.80;;
11998;SDS011;40817;51.520;9.954;2022-10-15T01:54:09;7.07;;;4.43;;
11998;SDS011;40817;51.520;9.954;2022-10-15T01:56:43;9.77;;;4.35;;
11998;SDS011;40817;51.520;9.954;2022-10-15T01:59:15;4.07;;;3.67;;
11998;SDS011;40817;51.520;9.954;2022-10-15T02:01:48;4.75;;;3.85;;
11998;SDS011;40817;51.520;9.954;2022-10-15T02:04:17;6.13;;;4.07;;
11998;SDS011;40817;51.520;9.954;2022-10-15T02:06:47;4.78;;;4.28;;
11998;SDS011;40817;51.520;9.954;2022-10-15T02:09:24;4.25;;;3.78;;
11998;SDS011;40817;51.520;9.954;2022-10-15T02:12:08;5.80;;;4.28;;
11998;SDS011;40817;51.520;9.954;2022-10-15T02:15:02;4.47;;;4.00;;
11998;SDS011;40817;51.520;9.954;2022-10-15T02:17:39;6.15;;;4.20;;
11998;SDS011;40817;51.520;9.954;2022-10-15T02:20:17;6.90;;;4.20;;
11998;SDS011;40817;51.520;9.954;2022-10-15T02:22:52;5.68;;;4.03;;
11998;SDS011;40817;51.520;9.954;2022-10-15T02:25:26;4.70;;;4.18;;
11998;SDS011;40817;51.520;9.954;2022-10-15T02:27:55;5.35;;;3.90;;
11998;SDS011;40817;51.520;9.954;2022-10-15T02:30:25;6.65;;;4.05;;
11998;SDS011;40817;51.520;9.954;2022-10-15T02:32:55;5.60;;;4.07;;
11998;SDS011;40817;51.520;9.954;2022-10-15T02:35:25;4.80;;;4.18;;
11998;SDS011;40817;51.520;9.954;2022-10-15T02:37:55;6.38;;;4.03;;
11998;SDS011;40817;51.520;9.954;2022-10-15T02:40:27;6.82;;;4.53;;
11998;SDS011;40817;51.520;9.954;2022-10-15T02:42:59;5.63;;;3.78;;
11998;SDS011;40817;51.520;9.954;2022-10-15T02:45:30;4.80;;;4.30;;
11998;SDS011;40817;51.520;9.954;2022-10-15T02:47:59;4.50;;;3.75;;
11998;SDS011;40817;51.520;9.954;2022-10-15T02:50:27;4.78;;;4.18;;
11998;SDS011;40817;51.520;9.954;2022-10-15T02:52:55;5.05;;;4.18;;
11998;SDS011;40817;51.520;9.954;2022-10-15T02:55:23;5.50;;;3.83;;
11998;SDS011;40817;51.520;9.954;2022-10-15T02:57:50;6.95;;;4.47;;
11998;SDS011;40817;51.520;9.954;2022-10-15T03:00:18;5.05;;;4.30;;
11998;SDS011;40817;51.520;9.954;2022-10-15T03:02:46;6.05;;;4.10;;
11998;SDS011;40817;51.520;9.954;2022-10-15T03:05:16;7.13;;;4.50;;
11998;SDS011;40817;51.520;9.954;2022-10-15T03:07:44;4.50;;;3.90;;
11998;SDS011;40817;51.520;9.954;2022-10-15T03:10:12;4.55;;;4.07;;
11998;SDS011;40817;51.520;9.954;2022-10-15T03:12:40;5.05;;;4.25;;
11998;SDS011;40817;51.520;9.954;2022-10-15T03:15:08;4.78;;;4.18;;
11998;SDS011;40817;51.520;9.954;2022-10-15T03:17:36;3.72;;;3.33;;
11998;SDS011;40817;51.520;9.954;2022-10-15T03:20:04;4.88;;;3.60;;
11998;SDS011;40817;51.520;9.954;2022-10-15T03:22:34;4.85;;;3.75;;
11998;SDS011;40817;51.520;9.954;2022-10-15T03:25:02;3.85;;;3.40;;
11998;SDS011;40817;51.520;9.954;2022-10-15T03:27:31;4.65;;;3.97;;
11998;SDS011;40817;51.520;9.954;2022-10-15T03:29:59;4.03;;;3.60;;
11998;SDS011;40817;51.520;9.954;2022-10-15T03:32:26;4.43;;;3.45;;
11998;SDS011;40817;51.520;9.954;2022-10-15T03:34:54;4.72;;;3.70;;
11998;SDS011;40817;51.520;9.954;2022-10-15T03:37:22;5.15;;;3.58;;
11998;SDS011;40817;51.520;9.954;2022-10-15T03:39:51;4.68;;;3.22;;
11998;SDS011;40817;51.520;9.954;2022-10-15T03:42:21;4.45;;;3.92;;
11998;SDS011;40817;51.520;9.954;2022-10-15T03:44:49;6.72;;;4.22;;
11998;SDS011;40817;51.520;9.954;2022-10-15T03:47:17;4.10;;;3.70;;
11998;SDS011;40817;51.520;9.954;2022-10-15T03:49:45;4.93;;;3.88;;
11998;SDS011;40817;51.520;9.954;2022-10-15T03:52:12;4.88;;;3.70;;
11998;SDS011;40817;51.520;9.954;2022-10-15T03:54:40;4.82;;;4.07;;
11998;SDS011;40817;51.520;9.954;2022-10-15T03:57:09;4.68;;;3.78;;
11998;SDS011;40817;51.520;9.954;2022-10-15T03:59:37;5.60;;;3.72;;
11998;SDS011;40817;51.520;9.954;2022-10-15T04:02:05;3.92;;;3.53;;
11998;SDS011;40817;51.520;9.954;2022-10-15T04:04:33;4.22;;;3.42;;
11998;SDS011;40817;51.520;9.954;2022-10-15T04:07:00;5.03;;;3.47;;
11998;SDS011;40817;51.520;9.954;2022-10-15T04:09:28;3.53;;;3.22;;
11998;SDS011;40817;51.520;9.954;2022-10-15T04:11:56;5.38;;;3.60;;
11998;SDS011;40817;51.520;9.954;2022-10-15T04:14:25;4.20;;;3.45;;
11998;SDS011;40817;51.520;9.954;2022-10-15T04:16:53;4.78;;;3.80;;
11998;SDS011;40817;51.520;9.954;2022-10-15T04:19:23;4.75;;;3.90;;
11998;SDS011;40817;51.520;9.954;2022-10-15T04:21:51;4.85;;;3.67;;
11998;SDS011;40817;51.520;9.954;2022-10-15T04:24:19;4.82;;;3.50;;
11998;SDS011;40817;51.520;9.954;2022-10-15T04:26:47;5.60;;;3.90;;
11998;SDS011;40817;51.520;9.954;2022-10-15T04:29:15;5.07;;;3.88;;
11998;SDS011;40817;51.520;9.954;2022-10-15T04:31:44;4.82;;;3.90;;
11998;SDS011;40817;51.520;9.954;2022-10-15T04:34:12;5.90;;;4.18;;
11998;SDS011;40817;51.520;9.954;2022-10-15T04:36:40;7.15;;;4.18;;
11998;SDS011;40817;51.520;9.954;2022-10-15T04:39:07;6.70;;;3.78;;
11998;SDS011;40817;51.520;9.954;2022-10-15T04:41:35;5.65;;;3.85;;
11998;SDS011;40817;51.520;9.954;2022-10-15T04:44:03;8.07;;;3.60;;
11998;SDS011;40817;51.520;9.954;2022-10-15T04:46:31;4.97;;;3.90;;
11998;SDS011;40817;51.520;9.954;2022-10-15T04:49:00;4.50;;;3.47;;
11998;SDS011;40817;51.520;9.954;2022-10-15T04:51:28;4.15;;;3.60;;
11998;SDS011;40817;51.520;9.954;2022-10-15T04:53:56;3.80;;;3.20;;
11998;SDS011;40817;51.520;9.954;2022-10-15T04:56:26;7.28;;;3.65;;
11998;SDS011;40817;51.520;9.954;2022-10-15T04:58:54;5.00;;;3.05;;
11998;SDS011;40817;51.520;9.954;2022-10-15T05:01:22;4.40;;;3.33;;
11998;SDS011;40817;51.520;9.954;2022-10-15T05:03:49;5.15;;;3.10;;
11998;SDS011;40817;51.520;9.954;2022-10-15T05:06:19;4.90;;;3.30;;
11998;SDS011;40817;51.520;9.954;2022-10-15T05:08:48;3.22;;;2.70;;
11998;SDS011;40817;51.520;9.954;2022-10-15T05:11:18;5.28;;;2.78;;
11998;SDS011;40817;51.520;9.954;2022-10-15T05:13:49;4.80;;;2.88;;
11998;SDS011;40817;51.520;9.954;2022-10-15T05:16:18;3.78;;;2.38;;
11998;SDS011;40817;51.520;9.954;2022-10-15T05:18:48;3.15;;;2.33;;
11998;SDS011;40817;51.520;9.954;2022-10-15T05:21:19;3.85;;;2.30;;
11998;SDS011;40817;51.520;9.954;2022-10-15T05:23:50;4.65;;;2.67;;
11998;SDS011;40817;51.520;9.954;2022-10-15T05:26:18;4.35;;;2.88;;
11998;SDS011;40817;51.520;9.954;2022-10-15T05:28:49;3.28;;;2.60;;
11998;SDS011;40817;51.520;9.954;2022-10-15T05:31:18;3.33;;;2.10;;
11998;SDS011;40817;51.520;9.954;2022-10-15T05:33:48;5.45;;;2.65;;
11998;SDS011;40817;51.520;9.954;2022-10-15T05:36:19;4.60;;;2.60;;
11998;SDS011;40817;51.520;9.954;2022-10-15T05:38:51;3.92;;;2.42;;
11998;SDS011;40817;51.520;9.954;2022-10-15T05:41:20;3.90;;;2.35;;
11998;SDS011;40817;51.520;9.954;2022-10-15T05:43:50;4.97;;;2.53;;
11998;SDS011;40817;51.520;9.954;2022-10-15T05:46:22;3.42;;;2.97;;
11998;SDS011;40817;51.520;9.954;2022-10-15T05:48:51;4.43;;;2.42;;
11998;SDS011;40817;51.520;9.954;2022-10-15T05:51:23;3.78;;;2.83;;
11998;SDS011;40817;51.520;9.954;2022-10-15T05:53:53;3.03;;;2.55;;
11998;SDS011;40817;51.520;9.954;2022-10-15T05:56:22;3.03;;;2.63;;
11998;SDS011;40817;51.520;9.954;2022-10-15T05:58:50;5.53;;;2.50;;
11998;SDS011;40817;51.520;9.954;2022-10-15T06:01:17;4.03;;;2.83;;
11998;SDS011;40817;51.520;9.954;2022-10-15T06:03:45;3.22;;;2.47;;
11998;SDS011;40817;51.520;9.954;2022-10-15T06:06:14;4.15;;;2.80;;
11998;SDS011;40817;51.520;9.954;2022-10-15T06:08:45;3.30;;;2.65;;
11998;SDS011;40817;51.520;9.954;2022-10-15T06:11:14;3.40;;;2.60;;
11998;SDS011;40817;51.520;9.954;2022-10-15T06:13:43;4.38;;;2.50;;
11998;SDS011;40817;51.520;9.954;2022-10-15T06:16:12;3.50;;;2.60;;
11998;SDS011;40817;51.520;9.954;2022-10-15T06:18:42;5.82;;;3.53;;
11998;SDS011;40817;51.520;9.954;2022-10-15T06:21:10;5.75;;;3.08;;
11998;SDS011;40817;51.520;9.954;2022-10-15T06:23:38;4.15;;;3.10;;
11998;SDS011;40817;51.520;9.954;2022-10-15T06:26:07;6.75;;;2.70;;
11998;SDS011;40817;51.520;9.954;2022-10-15T06:28:35;2.95;;;2.22;;
11998;SDS011;40817;51.520;9.954;2022-10-15T06:31:04;3.55;;;2.28;;
11998;SDS011;40817;51.520;9.954;2022-10-15T06:33:36;2.75;;;2.42;;
11998;SDS011;40817;51.520;9.954;2022-10-15T06:36:04;3.22;;;2.50;;
11998;SDS011;40817;51.520;9.954;2022-10-15T06:38:36;4.47;;;2.70;;
11998;SDS011;40817;51.520;9.954;2022-10-15T06:41:04;4.18;;;3.28;;
11998;SDS011;40817;51.520;9.954;2022-10-15T06:43:34;3.70;;;2.90;;
11998;SDS011;40817;51.520;9.954;2022-10-15T06:46:02;4.03;;;2.40;;
11998;SDS011;40817;51.520;9.954;2022-10-15T06:48:31;3.30;;;2.35;;
11998;SDS011;40817;51.520;9.954;2022-10-15T06:50:59;3.78;;;2.55;;
11998;SDS011;40817;51.520;9.954;2022-10-15T06:53:29;3.03;;;2.33;;
11998;SDS011;40817;51.520;9.954;2022-10-15T06:55:57;3.63;;;2.63;;
11998;SDS011;40817;51.520;9.954;2022-10-15T06:58:28;3.58;;;2.70;;
11998;SDS011;40817;51.520;9.954;2022-10-15T07:00:58;4.45;;;3.20;;
11998;SDS011;40817;51.520;9.954;2022-10-15T07:03:36;3.22;;;2.88;;
11998;SDS011;40817;51.520;9.954;2022-10-15T07:06:04;4.50;;;3.40;;
11998;SDS011;40817;51.520;9.954;2022-10-15T07:08:35;5.53;;;3.75;;
11998;SDS011;40817;51.520;9.954;2022-10-15T07:11:05;5.03;;;2.78;;
11998;SDS011;40817;51.520;9.954;2022-10-15T07:13:35;4.25;;;3.05;;
11998;SDS011;40817;51.520;9.954;2022-10-15T07:16:04;4.68;;;3.60;;
11998;SDS011;40817;51.520;9.954;2022-10-15T07:18:33;5.10;;;3.15;;
11998;SDS011;40817;51.520;9.954;2022-10-15T07:21:01;3.88;;;2.97;;
11998;SDS011;40817;51.520;9.954;2022-10-15T07:23:30;4.65;;;3.20;;
11998;SDS011;40817;51.520;9.954;2022-10-15T07:25:57;4.28;;;3.40;;
11998;SDS011;40817;51.520;9.954;2022-10-15T07:28:26;6.22;;;3.67;;
11998;SDS011;40817;51.520;9.954;2022-10-15T07:31:06;4.38;;;3.85;;
11998;SDS011;40817;51.520;9.954;2022-10-15T07:33:34;5.28;;;3.70;;
11998;SDS011;40817;51.520;9.954;2022-10-15T07:36:02;4.85;;;3.90;;
11998;SDS011;40817;51.520;9.954;2022-10-15T07:38:31;4.90;;;4.32;;
11998;SDS011;40817;51.520;9.954;2022-10-15T07:41:00;5.57;;;4.63;;
11998;SDS011;40817;51.520;9.954;2022-10-15T07:43:30;10.75;;;5.32;;
11998;SDS011;40817;51.520;9.954;2022-10-15T07:45:58;5.82;;;5.03;;
11998;SDS011;40817;51.520;9.954;2022-10-15T07:48:27;6.00;;;4.63;;
11998;SDS011;40817;51.520;9.954;2022-10-15T07:50:55;7.60;;;5.13;;
11998;SDS011;40817;51.520;9.954;2022-10-15T07:53:24;6.88;;;4.85;;
11998;SDS011;40817;51.520;9.954;2022-10-15T07:55:52;5.35;;;3.85;;
11998;SDS011;40817;51.520;9.954;2022-10-15T07:58:24;5.60;;;4.20;;
11998;SDS011;40817;51.520;9.954;2022-10-15T08:00:54;5.70;;;4.43;;
11998;SDS011;40817;51.520;9.954;2022-10-15T08:03:25;6.18;;;4.07;;
11998;SDS011;40817;51.520;9.954;2022-10-15T08:05:54;6.03;;;4.57;;
11998;SDS011;40817;51.520;9.954;2022-10-15T08:08:22;6.65;;;4.75;;
11998;SDS011;40817;51.520;9.954;2022-10-15T08:10:50;6.07;;;5.00;;
11998;SDS011;40817;51.520;9.954;2022-10-15T08:13:18;5.97;;;4.75;;
11998;SDS011;40817;51.520;9.954;2022-10-15T08:15:46;5.75;;;4.20;;
11998;SDS011;40817;51.520;9.954;2022-10-15T08:18:14;7.88;;;5.78;;
11998;SDS011;40817;51.520;9.954;2022-10-15T08:20:42;7.88;;;5.43;;
11998;SDS011;40817;51.520;9.954;2022-10-15T08:23:14;6.68;;;5.38;;
11998;SDS011;40817;51.520;9.954;2022-10-15T08:25:42;7.10;;;5.25;;
11998;SDS011;40817;51.520;9.954;2022-10-15T08:28:10;8.20;;;5.78;;
11998;SDS011;40817;51.520;9.954;2022-10-15T08:30:38;8.50;;;5.07;;
11998;SDS011;40817;51.520;9.954;2022-10-15T08:33:06;7.82;;;5.38;;
11998;SDS011;40817;51.520;9.954;2022-10-15T08:35:34;6.63;;;5.30;;
11998;SDS011;40817;51.520;9.954;2022-10-15T08:38:03;6.63;;;5.22;;
11998;SDS011;40817;51.520;9.954;2022-10-15T08:40:32;6.68;;;5.00;;
11998;SDS011;40817;51.520;9.954;2022-10-15T08:43:00;8.02;;;5.22;;
11998;SDS011;40817;51.520;9.954;2022-10-15T08:45:29;6.03;;;4.90;;
11998;SDS011;40817;51.520;9.954;2022-10-15T08:48:04;7.28;;;5.22;;
11998;SDS011;40817;51.520;9.954;2022-10-15T08:50:39;5.53;;;4.47;;
11998;SDS011;40817;51.520;9.954;2022-10-15T08:53:14;6.75;;;4.97;;
11998;SDS011;40817;51.520;9.954;2022-10-15T08:55:48;6.57;;;4.75;;
11998;SDS011;40817;51.520;9.954;2022-10-15T08:58:22;5.88;;;4.82;;
11998;SDS011;40817;51.520;9.954;2022-10-15T09:00:58;7.28;;;4.70;;
11998;SDS011;40817;51.520;9.954;2022-10-15T09:03:33;5.90;;;4.63;;
11998;SDS011;40817;51.520;9.954;2022-10-15T09:06:11;6.95;;;4.93;;
11998;SDS011;40817;51.520;9.954;2022-10-15T09:08:47;5.68;;;4.28;;
11998;SDS011;40817;51.520;9.954;2022-10-15T09:11:27;6.20;;;4.22;;
11998;SDS011;40817;51.520;9.954;2022-10-15T09:14:08;5.25;;;3.20;;
11998;SDS011;40817;51.520;9.954;2022-10-15T09:16:41;5.10;;;2.83;;
11998;SDS011;40817;51.520;9.954;2022-10-15T09:19:15;4.80;;;2.95;;
11998;SDS011;40817;51.520;9.954;2022-10-15T09:21:47;3.25;;;2.40;;
11998;SDS011;40817;51.520;9.954;2022-10-15T09:24:19;2.40;;;1.90;;
11998;SDS011;40817;51.520;9.954;2022-10-15T09:26:57;3.35;;;2.10;;
11998;SDS011;40817;51.520;9.954;2022-10-15T09:29:36;2.80;;;2.10;;
11998;SDS011;40817;51.520;9.954;2022-10-15T09:32:14;5.28;;;2.70;;
11998;SDS011;40817;51.520;9.954;2022-10-15T09:34:52;2.67;;;2.08;;
11998;SDS011;40817;51.520;9.954;2022-10-15T09:37:26;2.90;;;2.38;;
11998;SDS011;40817;51.520;9.954;2022-10-15T09:40:17;2.95;;;2.25;;
11998;SDS011;40817;51.520;9.954;2022-10-15T09:43:01;3.33;;;2.38;;
11998;SDS011;40817;51.520;9.954;2022-10-15T09:45:31;2.85;;;1.92;;
11998;SDS011;40817;51.520;9.954;2022-10-15T09:47:59;2.10;;;1.67;;
11998;SDS011;40817;51.520;9.954;2022-10-15T09:50:33;2.83;;;2.10;;
11998;SDS011;40817;51.520;9.954;2022-10-15T09:53:11;4.75;;;1.88;;
11998;SDS011;40817;51.520;9.954;2022-10-15T09:55:48;2.67;;;1.90;;
11998;SDS011;40817;51.520;9.954;2022-10-15T09:58:29;2.50;;;1.75;;
11998;SDS011;40817;51.520;9.954;2022-10-15T10:01:15;2.20;;;1.48;;
11998;SDS011;40817;51.520;9.954;2022-10-15T10:03:45;3.47;;;1.60;;
11998;SDS011;40817;51.520;9.954;2022-10-15T10:06:20;3.03;;;1.50;;
11998;SDS011;40817;51.520;9.954;2022-10-15T10:08:50;2.38;;;1.70;;
11998;SDS011;40817;51.520;9.954;2022-10-15T10:11:22;3.25;;;1.77;;
11998;SDS011;40817;51.520;9.954;2022-10-15T10:13:54;2.50;;;1.73;;
11998;SDS011;40817;51.520;9.954;2022-10-15T10:16:25;3.03;;;1.83;;
11998;SDS011;40817;51.520;9.954;2022-10-15T10:19:01;2.72;;;1.83;;
11998;SDS011;40817;51.520;9.954;2022-10-15T10:21:36;2.00;;;1.70;;
11998;SDS011;40817;51.520;9.954;2022-10-15T10:24:17;2.80;;;1.73;;
11998;SDS011;40817;51.520;9.954;2022-10-15T10:26:54;2.58;;;1.50;;
11998;SDS011;40817;51.520;9.954;2022-10-15T10:29:24;2.50;;;1.42;;
11998;SDS011;40817;51.520;9.954;2022-10-15T10:31:53;1.67;;;1.30;;
11998;SDS011;40817;51.520;9.954;2022-10-15T10:34:22;2.20;;;1.52;;
11998;SDS011;40817;51.520;9.954;2022-10-15T10:36:54;2.10;;;1.63;;
11998;SDS011;40817;51.520;9.954;2022-10-15T10:39:24;3.03;;;1.50;;
11998;SDS011;40817;51.520;9.954;2022-10-15T10:41:54;2.03;;;1.52;;
11998;SDS011;40817;51.520;9.954;2022-10-15T10:44:27;2.08;;;1.25;;
11998;SDS011;40817;51.520;9.954;2022-10-15T10:47:01;2.03;;;1.20;;
11998;SDS011;40817;51.520;9.954;2022-10-15T10:49:40;1.60;;;1.25;;
11998;SDS011;40817;51.520;9.954;2022-10-15T10:55:00;2.78;;;1.40;;
11998;SDS011;40817;51.520;9.954;2022-10-15T10:57:40;2.08;;;1.40;;
11998;SDS011;40817;51.520;9.954;2022-10-15T11:00:17;1.92;;;1.50;;
11998;SDS011;40817;51.520;9.954;2022-10-15T11:02:50;1.75;;;1.15;;
11998;SDS011;40817;51.520;9.954;2022-10-15T11:05:21;1.70;;;1.00;;
11998;SDS011;40817;51.520;9.954;2022-10-15T11:07:55;1.90;;;1.20;;
11998;SDS011;40817;51.520;9.954;2022-10-15T11:10:34;1.75;;;1.15;;
11998;SDS011;40817;51.520;9.954;2022-10-15T11:13:12;6.35;;;1.30;;
11998;SDS011;40817;51.520;9.954;2022-10-15T11:16:06;1.77;;;1.10;;
11998;SDS011;40817;51.520;9.954;2022-10-15T11:18:49;1.80;;;0.93;;
11998;SDS011;40817;51.520;9.954;2022-10-15T11:21:35;2.15;;;0.95;;
11998;SDS011;40817;51.520;9.954;2022-10-15T11:24:15;1.05;;;0.70;;
11998;SDS011;40817;51.520;9.954;2022-10-15T11:26:55;1.13;;;0.70;;
11998;SDS011;40817;51.520;9.954;2022-10-15T11:29:42;0.85;;;0.65;;
11998;SDS011;40817;51.520;9.954;2022-10-15T11:32:29;1.58;;;0.60;;
11998;SDS011;40817;51.520;9.954;2022-10-15T11:35:14;0.98;;;0.60;;
11998;SDS011;40817;51.520;9.954;2022-10-15T11:38:02;0.80;;;0.60;;
11998;SDS011;40817;51.520;9.954;2022-10-15T11:40:46;0.57;;;0.35;;
11998;SDS011;40817;51.520;9.954;2022-10-15T11:43:49;0.75;;;0.52;;
11998;SDS011;40817;51.520;9.954;2022-10-15T11:46:45;0.70;;;0.40;;
11998;SDS011;40817;51.520;9.954;2022-10-15T11:49:34;0.52;;;0.40;;
11998;SDS011;40817;51.520;9.954;2022-10-15T11:52:27;2.08;;;0.40;;
11998;SDS011;40817;51.520;9.954;2022-10-15T11:55:19;1.13;;;0.50;;
11998;SDS011;40817;51.520;9.954;2022-10-15T11:57:51;1.70;;;0.40;;
11998;SDS011;40817;51.520;9.954;2022-10-15T12:00:29;0.73;;;0.60;;
11998;SDS011;40817;51.520;9.954;2022-10-15T12:03:02;2.08;;;0.60;;
11998;SDS011;40817;51.520;9.954;2022-10-15T12:05:42;0.90;;;0.30;;
11998;SDS011;40817;51.520;9.954;2022-10-15T12:08:15;1.85;;;0.50;;
11998;SDS011;40817;51.520;9.954;2022-10-15T12:10:58;1.75;;;1.00;;
11998;SDS011;40817;51.520;9.954;2022-10-15T12:13:39;0.47;;;0.40;;
11998;SDS011;40817;51.520;9.954;2022-10-15T12:16:20;1.63;;;0.63;;
11998;SDS011;40817;51.520;9.954;2022-10-15T12:18:57;0.68;;;0.40;;
11998;SDS011;40817;51.520;9.954;2022-10-15T12:21:39;1.95;;;0.50;;
11998;SDS011;40817;51.520;9.954;2022-10-15T12:27:29;2.58;;;0.95;;
11998;SDS011;40817;51.520;9.954;2022-10-15T12:30:12;4.53;;;0.82;;
11998;SDS011;40817;51.520;9.954;2022-10-15T12:32:58;2.08;;;0.60;;
11998;SDS011;40817;51.520;9.954;2022-10-15T12:35:36;0.95;;;0.68;;
11998;SDS011;40817;51.520;9.954;2022-10-15T12:38:11;1.45;;;0.50;;
11998;SDS011;40817;51.520;9.954;2022-10-15T12:41:00;1.67;;;0.50;;
11998;SDS011;40817;51.520;9.954;2022-10-15T12:43:33;0.80;;;0.52;;
11998;SDS011;40817;51.520;9.954;2022-10-15T12:46:05;2.08;;;0.60;;
11998;SDS011;40817;51.520;9.954;2022-10-15T12:48:37;0.98;;;0.70;;
11998;SDS011;40817;51.520;9.954;2022-10-15T13:00:31;2.90;;;0.60;;
11998;SDS011;40817;51.520;9.954;2022-10-15T13:06:14;0.80;;;0.50;;
11998;SDS011;40817;51.520;9.954;2022-10-15T13:11:57;0.80;;;0.30;;
11998;SDS011;40817;51.520;9.954;2022-10-15T13:14:30;0.80;;;0.50;;
11998;SDS011;40817;51.520;9.954;2022-10-15T13:17:04;0.70;;;0.45;;
11998;SDS011;40817;51.520;9.954;2022-10-15T13:19:45;0.93;;;0.43;;
11998;SDS011;40817;51.520;9.954;2022-10-15T13:22:21;0.65;;;0.43;;
11998;SDS011;40817;51.520;9.954;2022-10-15T13:24:52;0.85;;;0.40;;
11998;SDS011;40817;51.520;9.954;2022-10-15T13:27:25;0.88;;;0.40;;
11998;SDS011;40817;51.520;9.954;2022-10-15T13:29:57;2.35;;;0.60;;
11998;SDS011;40817;51.520;9.954;2022-10-15T13:32:29;0.95;;;0.70;;
11998;SDS011;40817;51.520;9.954;2022-10-15T13:35:01;0.40;;;0.40;;
11998;SDS011;40817;51.520;9.954;2022-10-15T13:37:37;0.47;;;0.35;;
11998;SDS011;40817;51.520;9.954;2022-10-15T13:40:07;0.77;;;0.47;;
11998;SDS011;40817;51.520;9.954;2022-10-15T13:42:57;0.68;;;0.45;;
11998;SDS011;40817;51.520;9.954;2022-10-15T13:45:26;1.00;;;0.50;;
11998;SDS011;40817;51.520;9.954;2022-10-15T13:47:55;1.23;;;0.60;;
11998;SDS011;40817;51.520;9.954;2022-10-15T13:50:23;0.43;;;0.40;;
11998;SDS011;40817;51.520;9.954;2022-10-15T13:52:54;0.70;;;0.40;;
11998;SDS011;40817;51.520;9.954;2022-10-15T13:55:27;0.65;;;0.40;;
11998;SDS011;40817;51.520;9.954;2022-10-15T13:58:02;3.72;;;0.55;;
11998;SDS011;40817;51.520;9.954;2022-10-15T14:00:41;0.73;;;0.50;;
11998;SDS011;40817;51.520;9.954;2022-10-15T14:03:16;0.47;;;0.40;;
11998;SDS011;40817;51.520;9.954;2022-10-15T14:05:48;2.72;;;0.50;;
11998;SDS011;40817;51.520;9.954;2022-10-15T14:08:20;0.55;;;0.40;;
11998;SDS011;40817;51.520;9.954;2022-10-15T14:10:52;2.60;;;0.45;;
11998;SDS011;40817;51.520;9.954;2022-10-15T14:13:25;0.85;;;0.32;;
11998;SDS011;40817;51.520;9.954;2022-10-15T14:15:56;0.90;;;0.35;;
11998;SDS011;40817;51.520;9.954;2022-10-15T14:18:38;1.92;;;0.43;;
11998;SDS011;40817;51.520;9.954;2022-10-15T14:21:10;0.43;;;0.40;;
11998;SDS011;40817;51.520;9.954;2022-10-15T14:23:39;2.55;;;0.60;;
11998;SDS011;40817;51.520;9.954;2022-10-15T14:26:09;2.28;;;0.50;;
11998;SDS011;40817;51.520;9.954;2022-10-15T14:28:39;0.55;;;0.40;;
11998;SDS011;40817;51.520;9.954;2022-10-15T14:31:08;1.25;;;0.50;;
11998;SDS011;40817;51.520;9.954;2022-10-15T14:33:58;0.75;;;0.50;;
11998;SDS011;40817;51.520;9.954;2022-10-15T14:36:30;0.85;;;0.50;;
11998;SDS011;40817;51.520;9.954;2022-10-15T14:39:21;1.05;;;0.55;;
11998;SDS011;40817;51.520;9.954;2022-10-15T14:41:56;1.60;;;0.50;;
11998;SDS011;40817;51.520;9.954;2022-10-15T14:44:40;1.35;;;0.50;;
11998;SDS011;40817;51.520;9.954;2022-10-15T14:47:17;2.80;;;0.73;;
11998;SDS011;40817;51.520;9.954;2022-10-15T14:49:49;1.15;;;0.60;;
11998;SDS011;40817;51.520;9.954;2022-10-15T14:52:21;0.80;;;0.50;;
11998;SDS011;40817;51.520;9.954;2022-10-15T14:54:55;1.13;;;0.57;;
11998;SDS011;40817;51.520;9.954;2022-10-15T14:57:34;1.65;;;0.60;;
11998;SDS011;40817;51.520;9.954;2022-10-15T15:00:12;1.25;;;0.73;;
11998;SDS011;40817;51.520;9.954;2022-10-15T15:02:49;1.05;;;0.60;;
11998;SDS011;40817;51.520;9.954;2022-10-15T15:05:21;0.93;;;0.60;;
11998;SDS011;40817;51.520;9.954;2022-10-15T15:07:52;1.40;;;0.80;;
11998;SDS011;40817;51.520;9.954;2022-10-15T15:10:22;0.98;;;0.70;;
11998;SDS011;40817;51.520;9.954;2022-10-15T15:12:52;1.00;;;0.70;;
11998;SDS011;40817;51.520;9.954;2022-10-15T15:15:23;5.63;;;0.70;;
11998;SDS011;40817;51.520;9.954;2022-10-15T15:17:52;2.33;;;0.50;;
11998;SDS011;40817;51.520;9.954;2022-10-15T15:20:20;1.08;;;0.73;;
11998;SDS011;40817;51.520;9.954;2022-10-15T15:22:50;1.23;;;0.50;;
11998;SDS011;40817;51.520;9.954;2022-10-15T15:25:22;1.08;;;0.60;;
11998;SDS011;40817;51.520;9.954;2022-10-15T15:27:55;1.27;;;0.60;;
11998;SDS011;40817;51.520;9.954;2022-10-15T15:30:26;1.40;;;0.80;;
11998;SDS011;40817;51.520;9.954;2022-10-15T15:32:57;2.85;;;1.00;;
11998;SDS011;40817;51.520;9.954;2022-10-15T15:35:25;1.55;;;1.05;;
11998;SDS011;40817;51.520;9.954;2022-10-15T15:40:32;2.55;;;1.00;;
11998;SDS011;40817;51.520;9.954;2022-10-15T15:43:00;3.22;;;1.10;;
11998;SDS011;40817;51.520;9.954;2022-10-15T15:45:29;1.10;;;0.70;;
11998;SDS011;40817;51.520;9.954;2022-10-15T15:47:57;1.45;;;1.10;;
11998;SDS011;40817;51.520;9.954;2022-10-15T15:50:28;1.25;;;1.10;;